Time;durP1;ratioP1;P1;durP2;ratioP2;P2;SDS_P1;SDS_P2;PMS_P1;PMS_P2;Temp;Humidity;BMP_temperature;BMP_pressure;BME280_temperature;BME280_humidity;BME280_pressure;Samples;Min_cycle;Max_cycle;Signal;HPM_P1;HPM_P2
2021/11/22 00:02:08;;;;;;;11.93;5.45;;;;;;;;;;10479520;28;20036;-80
2021/11/22 00:07:09;;;;;;;11.85;5.45;;;;;;;;;;10471780;28;20383;-80
2021/11/22 00:12:10;;;;;;;11.20;5.22;;;;;;;;;;10467326;28;20473;-80
2021/11/22 00:17:11;;;;;;;13.32;5.22;;;;;;;;;;10467249;28;20163;-80
2021/11/22 00:22:11;;;;;;;11.27;5.40;;;;;;;;;;10450385;28;20103;-81
2021/11/22 00:32:29;;;;;;;7.70;4.82;;;;;;;;;;10188945;26;21048;-81
2021/11/22 00:37:35;;;;;;;8.93;5.05;;;;;;;;;;10232549;28;20040;-80
2021/11/22 00:42:38;;;;;;;9.98;4.78;;;;;;;;;;10228980;28;20038;-79
2021/11/22 00:47:39;;;;;;;11.38;5.18;;;;;;;;;;10227188;28;20118;-82
2021/11/22 00:52:41;;;;;;;8.18;5.00;;;;;;;;;;10257524;28;20462;-80
2021/11/22 00:57:41;;;;;;;7.03;4.72;;;;;;;;;;10253315;28;20039;-81
2021/11/22 01:02:42;;;;;;;7.45;5.07;;;;;;;;;;10249156;28;20087;-79
2021/11/22 01:07:43;;;;;;;9.55;4.80;;;;;;;;;;10229588;28;20360;-79
2021/11/22 01:12:43;;;;;;;8.32;5.03;;;;;;;;;;10228757;28;20047;-79
2021/11/22 01:17:45;;;;;;;6.38;4.25;;;;;;;;;;10237502;28;20044;-79
2021/11/22 01:22:46;;;;;;;8.52;4.70;;;;;;;;;;10228481;28;20451;-80
2021/11/22 01:27:47;;;;;;;7.63;4.35;;;;;;;;;;10222953;28;20032;-80
2021/11/22 01:32:49;;;;;;;6.93;4.82;;;;;;;;;;10221878;28;20027;-79
2021/11/22 01:37:49;;;;;;;7.30;4.80;;;;;;;;;;10236232;28;20043;-79
2021/11/22 01:42:51;;;;;;;9.38;4.80;;;;;;;;;;10229352;28;20114;-79
2021/11/22 01:47:52;;;;;;;7.43;4.50;;;;;;;;;;10207101;28;20031;-79
2021/11/22 01:52:53;;;;;;;9.32;4.72;;;;;;;;;;10246550;28;20039;-80
2021/11/22 01:57:55;;;;;;;6.78;4.10;;;;;;;;;;10256078;29;20517;-79
2021/11/22 02:02:56;;;;;;;6.55;4.35;;;;;;;;;;10231455;28;20038;-79
2021/11/22 02:07:57;;;;;;;9.70;4.70;;;;;;;;;;10249395;28;20035;-80
2021/11/22 02:12:57;;;;;;;8.68;4.45;;;;;;;;;;10245766;28;20035;-80
2021/11/22 02:17:58;;;;;;;6.03;4.60;;;;;;;;;;10245044;28;20387;-80
2021/11/22 02:23:06;;;;;;;8.70;4.53;;;;;;;;;;10241715;28;20028;-81
2021/11/22 02:28:07;;;;;;;7.18;4.40;;;;;;;;;;10247267;28;20051;-80
2021/11/22 02:33:17;;;;;;;7.45;4.85;;;;;;;;;;10224919;28;20035;-80
2021/11/22 02:38:19;;;;;;;10.18;4.30;;;;;;;;;;10235432;28;20114;-80
2021/11/22 02:43:20;;;;;;;9.23;4.45;;;;;;;;;;10218409;28;20032;-81
2021/11/22 02:48:20;;;;;;;6.32;4.20;;;;;;;;;;10217418;28;20394;-80
2021/11/22 02:53:23;;;;;;;8.18;4.40;;;;;;;;;;10229050;28;20043;-83
2021/11/22 02:58:24;;;;;;;7.93;4.10;;;;;;;;;;10254768;28;20046;-82
2021/11/22 03:03:29;;;;;;;9.73;4.30;;;;;;;;;;10243203;28;20028;-83
2021/11/22 03:08:30;;;;;;;5.80;3.97;;;;;;;;;;10239737;29;20378;-82
2021/11/22 03:13:31;;;;;;;8.68;4.68;;;;;;;;;;10252932;29;20035;-81
2021/11/22 03:18:31;;;;;;;6.07;3.83;;;;;;;;;;10255627;28;20046;-81
2021/11/22 03:23:34;;;;;;;7.60;4.28;;;;;;;;;;10251598;28;20031;-81
2021/11/22 03:28:34;;;;;;;11.90;4.57;;;;;;;;;;10222188;28;20054;-81
2021/11/22 03:33:35;;;;;;;6.70;4.20;;;;;;;;;;10236915;29;20039;-80
2021/11/22 03:38:36;;;;;;;7.50;4.30;;;;;;;;;;10254099;29;20039;-80
2021/11/22 03:43:46;;;;;;;4.25;3.45;;;;;;;;;;10239073;29;20114;-80
2021/11/22 03:48:46;;;;;;;6.25;4.65;;;;;;;;;;10254174;29;20043;-80
2021/11/22 03:53:47;;;;;;;6.47;4.13;;;;;;;;;;10249429;29;20458;-80
2021/11/22 03:58:48;;;;;;;8.73;3.83;;;;;;;;;;10251770;29;20054;-80
2021/11/22 04:03:49;;;;;;;5.00;4.13;;;;;;;;;;10235433;29;20043;-80
2021/11/22 04:08:49;;;;;;;6.13;4.10;;;;;;;;;;10253691;29;20042;-80
2021/11/22 04:13:51;;;;;;;6.40;4.40;;;;;;;;;;10254318;29;20037;-80
2021/11/22 04:18:52;;;;;;;7.20;4.68;;;;;;;;;;10239533;28;20462;-81
2021/11/22 04:23:57;;;;;;;7.28;4.43;;;;;;;;;;10254232;29;20090;-80
2021/11/22 04:28:58;;;;;;;6.18;4.13;;;;;;;;;;10252365;28;20126;-79
2021/11/22 04:33:59;;;;;;;6.38;4.40;;;;;;;;;;10253352;29;20027;-79
2021/11/22 04:38:59;;;;;;;6.73;4.60;;;;;;;;;;10239956;29;20034;-80
2021/11/22 04:44:02;;;;;;;6.95;4.50;;;;;;;;;;10253460;29;20787;-81
2021/11/22 04:49:02;;;;;;;6.25;4.82;;;;;;;;;;10246293;29;20043;-83
2021/11/22 04:54:04;;;;;;;5.77;4.70;;;;;;;;;;10253044;29;20043;-82
2021/11/22 04:59:04;;;;;;;5.80;4.80;;;;;;;;;;10251006;29;20469;-81
2021/11/22 05:04:04;;;;;;;5.60;4.40;;;;;;;;;;10252611;29;20035;-81
2021/11/22 05:09:05;;;;;;;7.15;5.15;;;;;;;;;;10251261;29;20497;-80
2021/11/22 05:14:05;;;;;;;6.83;4.77;;;;;;;;;;10252664;29;20034;-81
2021/11/22 05:19:06;;;;;;;7.57;4.97;;;;;;;;;;10240755;29;20505;-81
2021/11/22 05:24:06;;;;;;;6.75;4.95;;;;;;;;;;10252726;28;20028;-82
2021/11/22 05:29:11;;;;;;;6.40;4.35;;;;;;;;;;10244781;28;20098;-80
2021/11/22 05:34:11;;;;;;;6.90;4.40;;;;;;;;;;10245469;29;20085;-80
2021/11/22 05:39:12;;;;;;;6.13;4.90;;;;;;;;;;10256615;29;20031;-80
2021/11/22 05:44:12;;;;;;;7.70;5.40;;;;;;;;;;10259225;29;20117;-80
2021/11/22 05:49:13;;;;;;;7.93;5.27;;;;;;;;;;10255168;29;20058;-80
2021/11/22 05:54:13;;;;;;;7.47;4.67;;;;;;;;;;10258711;29;20454;-80
2021/11/22 05:59:14;;;;;;;7.07;5.20;;;;;;;;;;10252772;29;20462;-79
2021/11/22 06:04:14;;;;;;;7.60;4.90;;;;;;;;;;10258577;29;20082;-80
2021/11/22 06:09:15;;;;;;;6.73;5.20;;;;;;;;;;10234149;29;21097;-79
2021/11/22 06:14:15;;;;;;;5.47;4.43;;;;;;;;;;10258668;29;20481;-81
2021/11/22 06:19:16;;;;;;;7.25;5.13;;;;;;;;;;10248974;29;20045;-80
2021/11/22 06:24:17;;;;;;;6.47;4.47;;;;;;;;;;10257594;29;20039;-78
2021/11/22 06:29:21;;;;;;;8.05;5.43;;;;;;;;;;10254245;28;20074;-81
2021/11/22 06:34:22;;;;;;;11.43;7.22;;;;;;;;;;10247392;29;20190;-89
2021/11/22 06:39:22;;;;;;;14.98;7.03;;;;;;;;;;10255793;28;20130;-88
2021/11/22 06:44:23;;;;;;;17.17;7.50;;;;;;;;;;10257355;29;20035;-91
2021/11/22 06:49:23;;;;;;;13.45;7.55;;;;;;;;;;10250152;29;21509;-89
2021/11/22 06:54:24;;;;;;;11.93;8.10;;;;;;;;;;10233635;29;20492;-90
2021/11/22 06:59:27;;;;;;;18.17;9.52;;;;;;;;;;10251851;29;20488;-86
2021/11/22 07:04:27;;;;;;;14.35;9.35;;;;;;;;;;10251005;29;20035;-85
2021/11/22 07:09:28;;;;;;;15.73;8.95;;;;;;;;;;10248201;28;20043;-91
2021/11/22 07:14:29;;;;;;;18.02;10.23;;;;;;;;;;10255476;29;20031;-85
2021/11/22 07:19:30;;;;;;;13.68;9.20;;;;;;;;;;10253580;29;20045;-89
2021/11/22 07:24:31;;;;;;;18.55;10.35;;;;;;;;;;10257253;28;20377;-91
2021/11/22 07:29:31;;;;;;;27.47;10.03;;;;;;;;;;10256302;28;20054;-93
2021/11/22 07:34:31;;;;;;;25.20;10.10;;;;;;;;;;10241737;29;20944;-87
2021/11/22 07:39:32;;;;;;;18.57;9.27;;;;;;;;;;10252998;29;20473;-83
2021/11/22 07:44:32;;;;;;;22.60;10.55;;;;;;;;;;10254607;29;20557;-82
2021/11/22 07:49:33;;;;;;;18.50;9.90;;;;;;;;;;10251867;28;20039;-82
2021/11/22 07:54:33;;;;;;;17.45;9.55;;;;;;;;;;10254068;29;20031;-82
2021/11/22 07:59:34;;;;;;;26.88;10.25;;;;;;;;;;10252709;28;20385;-83
2021/11/22 08:04:34;;;;;;;15.80;9.05;;;;;;;;;;10243364;28;20030;-82
2021/11/22 08:09:41;;;;;;;13.17;8.37;;;;;;;;;;10253120;28;20041;-83
2021/11/22 08:14:43;;;;;;;19.70;9.32;;;;;;;;;;10250293;28;20472;-81
2021/11/22 08:19:43;;;;;;;14.33;8.87;;;;;;;;;;10253548;28;20039;-81
2021/11/22 08:24:47;;;;;;;14.95;8.98;;;;;;;;;;10231047;28;20859;-81
2021/11/22 08:29:48;;;;;;;16.15;9.18;;;;;;;;;;10253282;28;20078;-81
2021/11/22 08:34:48;;;;;;;13.20;9.20;;;;;;;;;;10252418;28;20047;-82
2021/11/22 08:39:48;;;;;;;15.60;9.05;;;;;;;;;;10252896;28;20054;-83
2021/11/22 08:44:50;;;;;;;14.47;8.70;;;;;;;;;;10252151;28;20094;-83
2021/11/22 08:49:52;;;;;;;11.27;8.45;;;;;;;;;;10252548;28;20552;-84
2021/11/22 08:54:53;;;;;;;21.17;8.88;;;;;;;;;;10250858;28;20039;-82
2021/11/22 08:59:53;;;;;;;16.85;9.15;;;;;;;;;;10252451;28;20031;-83
2021/11/22 09:04:54;;;;;;;11.95;8.18;;;;;;;;;;10259067;28;20039;-82
2021/11/22 09:09:54;;;;;;;11.80;8.00;;;;;;;;;;10260594;28;20054;-82
2021/11/22 09:14:54;;;;;;;13.40;8.33;;;;;;;;;;10257843;29;20516;-80
2021/11/22 09:19:55;;;;;;;14.40;7.90;;;;;;;;;;10253856;29;20450;-81
2021/11/22 09:24:55;;;;;;;14.47;8.37;;;;;;;;;;10245017;29;20437;-82
2021/11/22 09:29:55;;;;;;;11.83;8.00;;;;;;;;;;10253782;28;20459;-81
2021/11/22 09:34:56;;;;;;;15.03;8.17;;;;;;;;;;10250601;29;20446;-82
2021/11/22 09:39:57;;;;;;;10.65;7.65;;;;;;;;;;10251452;29;20454;-83
2021/11/22 09:44:57;;;;;;;12.13;7.75;;;;;;;;;;10246834;29;20028;-81
2021/11/22 09:49:57;;;;;;;14.63;7.60;;;;;;;;;;10246180;29;20025;-83
2021/11/22 09:54:58;;;;;;;14.07;8.27;;;;;;;;;;10249277;29;20090;-81
2021/11/22 09:59:58;;;;;;;15.75;8.10;;;;;;;;;;10255916;29;20381;-81
2021/11/22 10:05:16;;;;;;;15.05;8.00;;;;;;;;;;10257691;29;20041;-81
2021/11/22 10:10:17;;;;;;;11.85;7.68;;;;;;;;;;10239106;29;20035;-83
2021/11/22 10:15:17;;;;;;;11.07;7.07;;;;;;;;;;10243134;28;20027;-82
2021/11/22 10:20:19;;;;;;;10.93;7.73;;;;;;;;;;10248204;28;20846;-81
2021/11/22 10:25:38;;;;;;;12.57;7.57;;;;;;;;;;10209287;29;20461;-81
2021/11/22 10:30:44;;;;;;;12.07;7.68;;;;;;;;;;10247147;28;20047;-80
2021/11/22 10:35:45;;;;;;;14.60;7.88;;;;;;;;;;10252088;29;20422;-80
2021/11/22 10:40:48;;;;;;;11.10;7.25;;;;;;;;;;10245772;29;20042;-80
2021/11/22 10:45:51;;;;;;;13.77;8.35;;;;;;;;;;10244105;28;20062;-81
2021/11/22 10:51:01;;;;;;;10.82;7.35;;;;;;;;;;10229022;28;20086;-80
2021/11/22 10:56:03;;;;;;;12.10;7.15;;;;;;;;;;10241447;29;20027;-81
2021/11/22 11:01:19;;;;;;;10.35;7.22;;;;;;;;;;10248807;28;20038;-80
2021/11/22 11:06:19;;;;;;;11.95;7.05;;;;;;;;;;10249269;28;20406;-82
2021/11/22 11:11:20;;;;;;;12.02;7.53;;;;;;;;;;10226043;28;20039;-81
2021/11/22 11:16:20;;;;;;;10.43;6.57;;;;;;;;;;10251853;28;20027;-81
2021/11/22 11:21:25;;;;;;;9.63;6.65;;;;;;;;;;10232851;29;21014;-81
2021/11/22 11:26:26;;;;;;;13.10;6.97;;;;;;;;;;10255787;28;20420;-81
2021/11/22 11:31:27;;;;;;;13.13;7.22;;;;;;;;;;10239527;28;20222;-81
2021/11/22 11:36:55;;;;;;;11.90;7.40;;;;;;;;;;10254614;28;20110;-81
2021/11/22 11:42:38;;;;;;;9.38;6.70;;;;;;;;;;10255664;28;20035;-81
2021/11/22 11:47:51;;;;;;;8.50;6.45;;;;;;;;;;10243366;28;20031;-81
2021/11/22 11:52:58;;;;;;;10.90;6.78;;;;;;;;;;10253271;28;20067;-81
2021/11/22 11:58:17;;;;;;;9.95;6.97;;;;;;;;;;10251121;28;20051;-81
2021/11/22 12:03:18;;;;;;;8.57;6.50;;;;;;;;;;10231868;28;20046;-81
2021/11/22 12:08:28;;;;;;;11.45;6.72;;;;;;;;;;10224796;28;20296;-81
2021/11/22 12:13:48;;;;;;;9.02;6.00;;;;;;;;;;10245023;28;20473;-81
2021/11/22 12:18:48;;;;;;;10.68;6.68;;;;;;;;;;10247835;28;21356;-82
2021/11/22 12:23:51;;;;;;;8.80;6.13;;;;;;;;;;10244294;29;20113;-81
2021/11/22 12:28:53;;;;;;;8.30;6.25;;;;;;;;;;10368631;23;20495;-82
2021/11/22 12:34:09;;;;;;;8.55;6.68;;;;;;;;;;10293209;28;20035;-81
2021/11/22 12:39:13;;;;;;;9.10;5.82;;;;;;;;;;10297179;28;20034;-81
2021/11/22 12:44:17;;;;;;;8.85;6.20;;;;;;;;;;10299355;28;20026;-81
2021/11/22 12:49:40;;;;;;;8.90;6.43;;;;;;;;;;10303688;28;20445;-82
2021/11/22 12:55:09;;;;;;;10.55;6.50;;;;;;;;;;10299921;28;20413;-80
2021/11/22 13:00:24;;;;;;;10.07;5.97;;;;;;;;;;10296863;28;20130;-82
2021/11/22 13:05:40;;;;;;;9.45;5.68;;;;;;;;;;10295356;28;20522;-83
2021/11/22 13:10:40;;;;;;;10.88;6.18;;;;;;;;;;10299961;28;20035;-81
2021/11/22 13:15:54;;;;;;;11.35;6.20;;;;;;;;;;10298953;28;20378;-81
2021/11/22 13:20:57;;;;;;;9.38;5.80;;;;;;;;;;10289648;28;20532;-81
2021/11/22 13:25:58;;;;;;;12.00;6.15;;;;;;;;;;10296695;28;20046;-80
2021/11/22 13:31:06;;;;;;;12.73;6.20;;;;;;;;;;10303952;28;20073;-82
2021/11/22 13:36:06;;;;;;;9.27;6.30;;;;;;;;;;10289061;28;20035;-80
2021/11/22 13:41:15;;;;;;;9.38;6.80;;;;;;;;;;10307988;28;20388;-80
2021/11/22 13:46:16;;;;;;;9.23;6.68;;;;;;;;;;10298477;28;20076;-80
2021/11/22 13:51:23;;;;;;;10.00;6.40;;;;;;;;;;10311425;28;20027;-82
2021/11/22 13:56:45;;;;;;;9.98;6.57;;;;;;;;;;10300611;28;20038;-82
2021/11/22 14:02:00;;;;;;;11.00;5.97;;;;;;;;;;10292888;28;20082;-81
2021/11/22 14:07:21;;;;;;;12.48;6.88;;;;;;;;;;10299267;28;20027;-82
2021/11/22 14:12:50;;;;;;;9.57;6.57;;;;;;;;;;10295364;28;20039;-81
2021/11/22 14:17:52;;;;;;;9.68;6.25;;;;;;;;;;10293426;28;20105;-81
2021/11/22 14:22:55;;;;;;;9.07;6.47;;;;;;;;;;10301996;28;20026;-81
2021/11/22 14:34:07;;;;;;;12.73;7.03;;;;;;;;;;10234664;28;20039;-80
2021/11/22 14:39:08;;;;;;;10.57;6.65;;;;;;;;;;10225514;29;20129;-81
2021/11/22 14:44:09;;;;;;;9.63;5.63;;;;;;;;;;10235040;29;20031;-80
2021/11/22 14:49:10;;;;;;;8.55;6.15;;;;;;;;;;10226034;29;20051;-83
2021/11/22 14:54:11;;;;;;;9.77;6.38;;;;;;;;;;10228569;28;20053;-82
2021/11/22 14:59:28;;;;;;;9.07;6.10;;;;;;;;;;10222759;29;20035;-81
2021/11/22 15:04:39;;;;;;;9.70;6.13;;;;;;;;;;10212431;29;20039;-80
2021/11/22 15:09:41;;;;;;;8.20;5.93;;;;;;;;;;10257709;28;20480;-80
2021/11/22 15:14:52;;;;;;;9.35;5.82;;;;;;;;;;10294674;28;20023;-82
2021/11/22 15:19:56;;;;;;;8.10;5.70;;;;;;;;;;10294953;28;20027;-80
2021/11/22 15:24:57;;;;;;;8.23;5.70;;;;;;;;;;10295425;28;20027;-80
2021/11/22 15:30:07;;;;;;;9.82;6.25;;;;;;;;;;10295331;28;20093;-80
2021/11/22 15:35:09;;;;;;;9.52;5.78;;;;;;;;;;10294922;28;20034;-81
2021/11/22 15:40:11;;;;;;;8.68;5.50;;;;;;;;;;10295687;28;20034;-80
2021/11/22 15:45:15;;;;;;;9.40;6.28;;;;;;;;;;10295036;28;20066;-82
2021/11/22 15:50:17;;;;;;;7.50;5.65;;;;;;;;;;10295045;28;20041;-81
2021/11/22 15:55:18;;;;;;;10.63;6.03;;;;;;;;;;10294868;28;20492;-80
2021/11/22 16:00:19;;;;;;;8.73;5.78;;;;;;;;;;10293640;28;20030;-82
2021/11/22 16:05:20;;;;;;;6.20;5.10;;;;;;;;;;10294284;28;20034;-82
2021/11/22 16:10:20;;;;;;;7.78;5.07;;;;;;;;;;10293535;28;20031;-83
2021/11/22 16:15:20;;;;;;;8.02;5.18;;;;;;;;;;10293412;28;20031;-83
2021/11/22 16:20:21;;;;;;;13.40;6.17;;;;;;;;;;10294216;28;20075;-81
2021/11/22 16:25:21;;;;;;;7.73;5.83;;;;;;;;;;10293761;28;20812;-82
2021/11/22 16:30:22;;;;;;;10.23;5.90;;;;;;;;;;10298947;28;20484;-82
2021/11/22 16:35:22;;;;;;;10.23;6.10;;;;;;;;;;10312497;28;20058;-82
2021/11/22 16:40:25;;;;;;;8.27;5.57;;;;;;;;;;10319224;28;20456;-82
2021/11/22 16:45:25;;;;;;;9.57;5.97;;;;;;;;;;10333593;28;20400;-83
2021/11/22 16:50:27;;;;;;;8.82;5.63;;;;;;;;;;10319855;28;20130;-84
2021/11/22 16:55:28;;;;;;;8.60;5.53;;;;;;;;;;10333512;28;20034;-82
2021/11/22 17:00:29;;;;;;;10.98;5.90;;;;;;;;;;10332475;28;20035;-82
2021/11/22 17:05:30;;;;;;;6.72;5.63;;;;;;;;;;10332743;28;20380;-82
2021/11/22 17:10:33;;;;;;;7.03;5.75;;;;;;;;;;10333018;28;20042;-83
2021/11/22 17:15:34;;;;;;;7.85;5.22;;;;;;;;;;10332979;28;20031;-84
2021/11/22 17:20:34;;;;;;;8.10;5.75;;;;;;;;;;10322649;28;20023;-83
2021/11/22 17:25:35;;;;;;;7.95;5.80;;;;;;;;;;10325217;28;20035;-82
2021/11/22 17:30:35;;;;;;;7.95;5.88;;;;;;;;;;10336159;28;20065;-82
2021/11/22 17:35:35;;;;;;;8.37;5.60;;;;;;;;;;10322401;28;20039;-83
2021/11/22 17:40:37;;;;;;;8.27;5.97;;;;;;;;;;10330682;28;20464;-82
2021/11/22 17:45:38;;;;;;;9.65;6.78;;;;;;;;;;10339993;28;20023;-81
2021/11/22 17:50:39;;;;;;;11.07;6.45;;;;;;;;;;10332921;28;20377;-81
2021/11/22 17:55:39;;;;;;;10.68;6.45;;;;;;;;;;10338809;28;20037;-81
2021/11/22 18:00:40;;;;;;;11.77;6.30;;;;;;;;;;10324184;28;20118;-84
2021/11/22 18:05:40;;;;;;;12.07;6.60;;;;;;;;;;10283123;28;20437;-83
2021/11/22 18:10:42;;;;;;;9.90;7.17;;;;;;;;;;10296600;28;20408;-83
2021/11/22 18:15:42;;;;;;;11.18;7.47;;;;;;;;;;10297703;28;20437;-82
2021/11/22 18:20:43;;;;;;;12.65;7.20;;;;;;;;;;10297611;28;20033;-82
2021/11/22 18:25:44;;;;;;;11.48;6.80;;;;;;;;;;10295745;28;20449;-83
2021/11/22 18:30:44;;;;;;;13.73;7.47;;;;;;;;;;10295012;28;20087;-81
2021/11/22 18:35:45;;;;;;;13.52;7.40;;;;;;;;;;10293381;28;20019;-82
2021/11/22 18:40:45;;;;;;;10.70;7.93;;;;;;;;;;10292712;28;20034;-84
2021/11/22 18:45:46;;;;;;;11.60;7.20;;;;;;;;;;10296406;28;20460;-82
2021/11/22 18:50:47;;;;;;;15.18;7.28;;;;;;;;;;10294577;28;20036;-81
2021/11/22 18:55:47;;;;;;;8.13;6.85;;;;;;;;;;10296425;28;20038;-81
2021/11/22 19:00:48;;;;;;;11.20;7.20;;;;;;;;;;10293988;28;20026;-82
2021/11/22 19:05:49;;;;;;;10.60;7.15;;;;;;;;;;10294768;28;20795;-82
2021/11/22 19:10:53;;;;;;;10.07;6.88;;;;;;;;;;10293954;28;20069;-84
2021/11/22 19:15:54;;;;;;;10.40;7.38;;;;;;;;;;10296927;28;20035;-81
2021/11/22 19:20:56;;;;;;;13.07;7.40;;;;;;;;;;10293999;28;20027;-82
2021/11/22 19:25:57;;;;;;;12.18;7.38;;;;;;;;;;10294820;28;20027;-83
2021/11/22 19:30:57;;;;;;;29.05;8.98;;;;;;;;;;10274216;28;20413;-83
2021/11/22 19:35:57;;;;;;;17.93;7.10;;;;;;;;;;10258290;28;20031;-83
2021/11/22 19:40:58;;;;;;;17.60;8.10;;;;;;;;;;10254918;28;20458;-83
2021/11/22 19:45:58;;;;;;;15.85;7.20;;;;;;;;;;10254171;28;20458;-82
2021/11/22 19:50:58;;;;;;;15.10;7.53;;;;;;;;;;10254909;28;20031;-83
2021/11/22 19:55:59;;;;;;;12.77;6.97;;;;;;;;;;10254514;28;20955;-83
2021/11/22 20:00:59;;;;;;;12.57;7.03;;;;;;;;;;10252859;28;20505;-83
2021/11/22 20:06:00;;;;;;;14.07;7.28;;;;;;;;;;10254320;28;20456;-83
2021/11/22 20:11:02;;;;;;;12.18;7.03;;;;;;;;;;10253744;28;20455;-83
2021/11/22 20:16:03;;;;;;;15.75;7.70;;;;;;;;;;10254155;28;20031;-83
2021/11/22 20:21:04;;;;;;;11.32;6.57;;;;;;;;;;10253676;28;20099;-83
2021/11/22 20:26:06;;;;;;;11.15;7.13;;;;;;;;;;10250540;28;20267;-82
2021/11/22 20:31:06;;;;;;;12.77;7.13;;;;;;;;;;10282631;28;20138;-82
2021/11/22 20:36:07;;;;;;;16.33;7.50;;;;;;;;;;10292202;28;20114;-82
2021/11/22 20:41:07;;;;;;;18.55;7.18;;;;;;;;;;10292210;28;20074;-82
2021/11/22 20:46:08;;;;;;;15.35;7.35;;;;;;;;;;10292931;28;20031;-81
2021/11/22 20:51:10;;;;;;;16.10;7.82;;;;;;;;;;10292941;28;20031;-81
2021/11/22 20:56:10;;;;;;;14.75;7.05;;;;;;;;;;10292462;28;20057;-82
2021/11/22 21:01:11;;;;;;;13.25;7.07;;;;;;;;;;10297037;28;20391;-82
2021/11/22 21:06:11;;;;;;;18.67;7.57;;;;;;;;;;10296904;28;20058;-82
2021/11/22 21:11:12;;;;;;;18.33;7.28;;;;;;;;;;10297866;28;20093;-83
2021/11/22 21:16:12;;;;;;;12.02;7.13;;;;;;;;;;10297315;28;20027;-83
2021/11/22 21:21:13;;;;;;;14.47;6.93;;;;;;;;;;10298566;28;20034;-82
2021/11/22 21:26:14;;;;;;;13.82;5.88;;;;;;;;;;10299693;28;20453;-83
2021/11/22 21:31:14;;;;;;;15.88;6.28;;;;;;;;;;10307396;28;20386;-84
2021/11/22 21:36:15;;;;;;;26.17;7.80;;;;;;;;;;10303420;28;20041;-82
2021/11/22 21:41:15;;;;;;;33.40;7.82;;;;;;;;;;10298302;28;20476;-81
2021/11/22 21:46:16;;;;;;;14.98;7.60;;;;;;;;;;10297094;28;20492;-81
2021/11/22 21:51:16;;;;;;;22.40;7.27;;;;;;;;;;10301105;28;20185;-80
2021/11/22 21:56:17;;;;;;;19.15;7.10;;;;;;;;;;10297809;28;20445;-84
2021/11/22 22:01:18;;;;;;;21.15;7.70;;;;;;;;;;10296971;28;20141;-82
2021/11/22 22:06:18;;;;;;;21.42;6.88;;;;;;;;;;10311307;28;20101;-82
2021/11/22 22:11:18;;;;;;;13.90;7.03;;;;;;;;;;10298348;28;20045;-82
2021/11/22 22:16:19;;;;;;;15.10;6.57;;;;;;;;;;10295688;28;20895;-83
2021/11/22 22:21:22;;;;;;;22.45;6.65;;;;;;;;;;10312770;28;20037;-85
2021/11/22 22:26:24;;;;;;;14.50;6.75;;;;;;;;;;10310442;28;20488;-80
2021/11/22 22:31:25;;;;;;;17.40;6.60;;;;;;;;;;10296016;28;20089;-82
2021/11/22 22:36:26;;;;;;;12.70;6.47;;;;;;;;;;10297487;28;20515;-81
2021/11/22 22:41:26;;;;;;;10.90;5.70;;;;;;;;;;10296702;28;20559;-82
2021/11/22 22:46:27;;;;;;;23.37;6.27;;;;;;;;;;10295053;28;20447;-82
2021/11/22 22:51:29;;;;;;;12.23;6.30;;;;;;;;;;10293564;28;20468;-82
2021/11/22 22:56:29;;;;;;;18.83;6.00;;;;;;;;;;10292525;28;20452;-81
2021/11/22 23:01:30;;;;;;;10.50;5.70;;;;;;;;;;10295598;28;20045;-81
2021/11/22 23:06:32;;;;;;;10.25;6.47;;;;;;;;;;10295193;28;20034;-81
2021/11/22 23:11:33;;;;;;;18.73;6.32;;;;;;;;;;10294931;28;20041;-81
2021/11/22 23:16:33;;;;;;;14.27;6.00;;;;;;;;;;10290945;28;20038;-81
2021/11/22 23:21:34;;;;;;;10.63;6.20;;;;;;;;;;10295287;28;20022;-80
2021/11/22 23:26:35;;;;;;;14.95;5.60;;;;;;;;;;10295246;28;20027;-81
2021/11/22 23:31:36;;;;;;;10.77;5.55;;;;;;;;;;10316745;28;20050;-81
2021/11/22 23:36:37;;;;;;;11.43;5.63;;;;;;;;;;10295271;28;20053;-82
2021/11/22 23:41:38;;;;;;;9.38;5.68;;;;;;;;;;10294456;28;20026;-82
2021/11/22 23:46:38;;;;;;;11.48;5.30;;;;;;;;;;10294710;28;20038;-82
2021/11/22 23:51:38;;;;;;;12.90;5.70;;;;;;;;;;10294881;28;20350;-82
2021/11/22 23:56:39;;;;;;;9.10;5.00;;;;;;;;;;10293712;28;20457;-81
